Peter J Brix — WDH3546 — position and weather

sailwx.info

Track history (hours):
 
Tides and Currents Weather Stations Pressure Air Temp Water Temp Dewpoint Dewpoint Depression Visibility Wind Speed Wind Dir Waves Ship Positions

Peter J Brix

Owner: Brusco Tug & Barge, Inc., Longview, WA. More information available from US FCC via Universal Licensing System and Coast Guard Vessel Documentation Center.

Last reported at 2017-Oct-17 22:01 UTC. Time now 2017-Oct-17 22:27 UTC.
Position N 45°35' W 122°46'.

Length 25 m; draft 4.6 m.

Type: Towing. MMSI: 367608420.

Date/timePositionNaut miles runAvg speedWind from/ knotsBaromVisibWave heightAir tempDewpointWater temp
2017-Oct-17 22:01N 45°35' W 122°46'0 0.0
2017-Oct-17 21:31N 45°35' W 122°46'0 0.0
2017-Oct-17 21:01N 45°35' W 122°46'0 0.0
2017-Oct-17 20:30N 45°35' W 122°46'0 0.0
2017-Oct-17 20:01N 45°35' W 122°46'0 0.0
2017-Oct-17 19:31N 45°35' W 122°46'0 0.0
2017-Oct-17 19:01N 45°35' W 122°46'0 0.0
2017-Oct-17 18:30N 45°35' W 122°46'0 0.0
2017-Oct-17 18:00N 45°35' W 122°46'0 0.0
2017-Oct-17 17:30N 45°35' W 122°46'0 0.0
2017-Oct-17 17:00N 45°35' W 122°46'0 0.0
2017-Oct-17 16:30N 45°35' W 122°46'0 0.0
2017-Oct-17 16:00N 45°35' W 122°46'0 0.0
2017-Oct-17 15:30N 45°35' W 122°46'0 0.0
2017-Oct-17 15:01N 45°35' W 122°46'0 0.0
2017-Oct-17 14:30N 45°35' W 122°46'0 0.0
2017-Oct-17 14:01N 45°35' W 122°46'0 0.0
2017-Oct-17 13:30N 45°35' W 122°46'0 0.0
2017-Oct-17 13:00N 45°35' W 122°46'0 0.0
2017-Oct-17 12:30N 45°35' W 122°46'0 0.0
2017-Oct-17 12:00N 45°35' W 122°46'0 0.0
2017-Oct-17 11:30N 45°35' W 122°46'0 0.0
2017-Oct-17 11:00N 45°35' W 122°46'0 0.0
2017-Oct-17 10:30N 45°35' W 122°46'0 0.0
2017-Oct-17 10:01N 45°35' W 122°46'0 0.0
2017-Oct-17 09:31N 45°35' W 122°46'0 0.0
2017-Oct-17 09:01N 45°35' W 122°46'0 0.0
2017-Oct-17 08:31N 45°35' W 122°46'0 0.0
2017-Oct-17 08:00N 45°35' W 122°46'0 0.0
2017-Oct-17 07:30N 45°35' W 122°46'0 0.0
2017-Oct-17 07:00N 45°35' W 122°46'0 0.0
2017-Oct-17 06:31N 45°35' W 122°46'0 0.0
2017-Oct-17 06:01N 45°35' W 122°46'0 0.0
2017-Oct-17 05:30N 45°35' W 122°46'0 0.0
2017-Oct-17 05:01N 45°35' W 122°46'0 0.0
2017-Oct-17 04:30N 45°35' W 122°46'0 0.0
2017-Oct-17 04:00N 45°35' W 122°46'0 0.0
2017-Oct-17 03:30N 45°35' W 122°46'0 0.1
2017-Oct-17 03:00N 45°35' W 122°46'2 4.9
2017-Oct-17 02:31N 45°38' W 122°47'4 8.8
2017-Oct-17 02:00N 45°37' W 122°41'0 0.3
2017-Oct-17 01:30N 45°38' W 122°41'0 0.2
2017-Oct-17 01:01N 45°38' W 122°41'1 1.3
2017-Oct-17 00:30N 45°38' W 122°42'3 6.0
2017-Oct-17 00:01N 45°39' W 122°46'4 7.2
2017-Oct-16 23:30N 45°35' W 122°46'0 0.0
2017-Oct-16 23:00N 45°35' W 122°46'0 0.0
2017-Oct-16 22:31N 45°35' W 122°46'0 0.0
2017-Oct-16 22:01N 45°35' W 122°46'0 0.0
2017-Oct-16 21:30N 45°35' W 122°46'0 0.0
2017-Oct-16 21:00N 45°35' W 122°46'0 0.0
2017-Oct-16 20:30N 45°35' W 122°46'0 0.0
2017-Oct-16 20:00N 45°35' W 122°46'0 0.0
2017-Oct-16 19:30N 45°35' W 122°46'0 0.0
2017-Oct-16 19:00N 45°35' W 122°46'0 0.0
2017-Oct-16 18:30N 45°35' W 122°46'0 0.0
2017-Oct-16 18:01N 45°35' W 122°46'0 0.0
2017-Oct-16 17:30N 45°35' W 122°46'0 0.0
2017-Oct-16 17:00N 45°35' W 122°46'0 0.0
2017-Oct-16 16:30N 45°35' W 122°46'0 0.0
2017-Oct-16 16:00N 45°35' W 122°46'0 0.0
2017-Oct-16 15:30N 45°35' W 122°46'0 0.0
2017-Oct-16 15:01N 45°35' W 122°46'0 0.0
2017-Oct-16 14:00N 45°35' W 122°46'0 0.0
2017-Oct-16 13:30N 45°35' W 122°46'0 0.0
2017-Oct-16 13:00N 45°35' W 122°46'0 0.0
2017-Oct-16 12:31N 45°35' W 122°46'0 0.0
2017-Oct-16 12:01N 45°35' W 122°46'0 0.0
2017-Oct-16 11:31N 45°35' W 122°46'0 0.0
2017-Oct-16 11:00N 45°35' W 122°46'0 0.0
2017-Oct-16 10:30N 45°35' W 122°46'0 0.0
2017-Oct-16 10:00N 45°35' W 122°46'0 0.0
2017-Oct-16 09:31N 45°35' W 122°46'0 0.0
2017-Oct-16 09:00N 45°35' W 122°46'0 0.0
2017-Oct-16 08:30N 45°35' W 122°46'0 0.0
2017-Oct-16 08:00N 45°35' W 122°46'2 3.1
2017-Oct-16 07:22N 45°37' W 122°47'1 4.0
2017-Oct-16 07:00N 45°38' W 122°47'2 4.2
2017-Oct-16 06:30N 45°36' W 122°47'1 2.3
2017-Oct-16 06:00N 45°35' W 122°46'0 0.0
2017-Oct-16 05:30N 45°35' W 122°46'0 0.0
2017-Oct-16 05:00N 45°35' W 122°46'0 0.0
2017-Oct-16 04:30N 45°35' W 122°46'0 0.0
2017-Oct-16 04:00N 45°35' W 122°46'0 0.0
2017-Oct-16 03:30N 45°35' W 122°46'0 0.0
2017-Oct-16 03:00N 45°35' W 122°46'0 0.0
2017-Oct-16 02:30N 45°35' W 122°46'0 0.0
2017-Oct-16 02:01N 45°35' W 122°46'0 0.0
2017-Oct-16 01:30N 45°35' W 122°46'0 0.0
2017-Oct-16 01:00N 45°35' W 122°46'0 0.0
2017-Oct-16 00:31N 45°35' W 122°46'0 0.0
2017-Oct-16 00:00N 45°35' W 122°46'0 0.0
2017-Oct-15 23:30N 45°35' W 122°46'0 0.0
2017-Oct-15 23:01N 45°35' W 122°46'0 0.0
2017-Oct-15 22:31N 45°35' W 122°46'0 0.0
2017-Oct-15 22:00N 45°35' W 122°46'0 0.0
2017-Oct-15 21:30N 45°35' W 122°46'0 0.0
2017-Oct-15 21:00N 45°35' W 122°46'0 0.0
2017-Oct-15 20:30N 45°35' W 122°46'0 0.0
2017-Oct-15 20:00N 45°35' W 122°46'0 0.0
2017-Oct-15 19:24N 45°35' W 122°46'0 0.0
2017-Oct-15 19:00N 45°35' W 122°46'0 0.0
2017-Oct-15 18:30N 45°35' W 122°46'0 0.0
2017-Oct-15 18:00N 45°35' W 122°46'0 0.0
2017-Oct-15 17:30N 45°35' W 122°46'0 0.0
2017-Oct-15 17:01N 45°35' W 122°46'0 0.0
2017-Oct-15 16:31N 45°35' W 122°46'0 0.0
2017-Oct-15 16:00N 45°35' W 122°46'0 0.0
2017-Oct-15 15:30N 45°35' W 122°46'0 0.0
2017-Oct-15 15:00N 45°35' W 122°46'0 0.0
2017-Oct-15 13:54N 45°35' W 122°46'0 0.0
2017-Oct-15 13:30N 45°35' W 122°46'0 0.0
2017-Oct-15 13:01N 45°35' W 122°46'0 0.0
2017-Oct-15 12:30N 45°35' W 122°46'0 0.0
2017-Oct-15 12:01N 45°35' W 122°46'0 0.0
2017-Oct-15 11:30N 45°35' W 122°46'0 0.0
2017-Oct-15 11:00N 45°35' W 122°46'0 0.0
2017-Oct-15 10:30N 45°35' W 122°46'0 0.0
2017-Oct-15 10:00N 45°35' W 122°46'0 0.0
2017-Oct-15 09:30N 45°35' W 122°46'0 0.0
2017-Oct-15 09:00N 45°35' W 122°46'0 0.0
2017-Oct-15 08:30N 45°35' W 122°46'0 0.0
2017-Oct-15 08:00N 45°35' W 122°46'0 0.0
2017-Oct-15 07:30N 45°35' W 122°46'0 0.0
2017-Oct-15 07:00N 45°35' W 122°46'0 0.0
2017-Oct-15 06:30N 45°35' W 122°46'0 0.0
2017-Oct-15 06:00N 45°35' W 122°46'0 0.0
2017-Oct-15 05:30N 45°35' W 122°46'0 0.0
2017-Oct-15 05:00N 45°35' W 122°46'0 0.0
2017-Oct-15 04:30N 45°35' W 122°46'0 0.0
2017-Oct-15 04:00N 45°35' W 122°46'0 0.0
2017-Oct-15 03:30N 45°35' W 122°46'0 0.0
2017-Oct-15 03:01N 45°35' W 122°46'0 0.0
2017-Oct-15 02:30N 45°35' W 122°46'0 0.0
2017-Oct-15 01:41N 45°35' W 122°46'0 0.0
2017-Oct-15 01:20N 45°35' W 122°46'0 0.0
2017-Oct-15 01:00N 45°35' W 122°46'0 0.0
2017-Oct-15 00:30N 45°35' W 122°46'0 0.0
2017-Oct-15 00:00N 45°35' W 122°46'0 0.0
2017-Oct-14 23:30N 45°35' W 122°46'0 0.0
2017-Oct-14 22:53N 45°35' W 122°46'0 0.0
2017-Oct-14 22:30N 45°35' W 122°46'0 0.0
2017-Oct-14 22:00N 45°35' W 122°46'0 0.0
2017-Oct-14 21:30N 45°35' W 122°46'0 0.0
2017-Oct-14 21:00N 45°35' W 122°46'0 0.0
2017-Oct-14 20:31N 45°35' W 122°46'0 0.8
2017-Oct-14 20:01N 45°36' W 122°46'3 6.6
2017-Oct-14 19:30N 45°39' W 122°44'2 3.7
2017-Oct-14 19:00N 45°38' W 122°42'3 6.0
2017-Oct-14 18:30N 45°39' W 122°46'4 7.9
2017-Oct-14 18:00N 45°35' W 122°46'0 0.0
2017-Oct-14 17:31N 45°35' W 122°46'0 0.0
2017-Oct-14 17:01N 45°35' W 122°46'0 0.0
2017-Oct-14 16:30N 45°35' W 122°46'0 0.0
2017-Oct-14 15:59N 45°35' W 122°46'0 0.0
2017-Oct-14 15:30N 45°35' W 122°46'0 0.0
2017-Oct-14 15:00N 45°35' W 122°46'0 0.0
2017-Oct-14 14:31N 45°35' W 122°46'0 0.0
2017-Oct-14 14:00N 45°35' W 122°46'0 0.0
2017-Oct-14 13:30N 45°35' W 122°46'0 0.0
2017-Oct-14 13:00N 45°35' W 122°46'0 0.0
2017-Oct-14 12:30N 45°35' W 122°46'0 0.0
2017-Oct-14 12:00N 45°35' W 122°46'0 0.0
2017-Oct-14 11:30N 45°35' W 122°46'0 0.0
2017-Oct-14 11:00N 45°35' W 122°46'0 0.0
2017-Oct-14 10:31N 45°35' W 122°46'0 0.0
2017-Oct-14 10:00N 45°35' W 122°46'0 0.0
2017-Oct-14 09:30N 45°35' W 122°46'0 0.0
2017-Oct-14 09:00N 45°35' W 122°46'0 0.0
2017-Oct-14 08:30N 45°35' W 122°46'0 0.0
2017-Oct-14 08:00N 45°35' W 122°46'0 0.0
2017-Oct-14 07:30N 45°35' W 122°46'0 0.0
2017-Oct-14 06:59N 45°35' W 122°46'0 0.0
2017-Oct-14 06:30N 45°35' W 122°46'0 0.0
2017-Oct-14 06:00N 45°35' W 122°46'0 0.0
2017-Oct-14 05:30N 45°35' W 122°46'0 0.0
2017-Oct-14 05:00N 45°35' W 122°46'0 0.0
2017-Oct-14 04:27N 45°35' W 122°46'0 0.0
2017-Oct-14 04:00N 45°35' W 122°46'0 0.0
2017-Oct-14 03:21N 45°35' W 122°46'0 0.0
2017-Oct-14 03:00N 45°35' W 122°46'0 0.0
2017-Oct-14 02:30N 45°35' W 122°46'3 6.7
2017-Oct-14 02:00N 45°39' W 122°46'0 0.1
2017-Oct-14 01:30N 45°39' W 122°46'1 1.6
2017-Oct-14 01:00N 45°39' W 122°46'0 0.8
2017-Oct-14 00:31N 45°39' W 122°45'2 3.2
2017-Oct-14 00:00N 45°38' W 122°47'3 5.9
2017-Oct-13 23:31N 45°35' W 122°46'0 0.0
2017-Oct-13 23:00N 45°35' W 122°46'0 0.0
2017-Oct-13 22:30N 45°35' W 122°46'0 0.0
2017-Oct-13 22:00N 45°35' W 122°46'0 0.0
2017-Oct-13 21:15N 45°35' W 122°46'0 0.0
2017-Oct-13 21:00N 45°35' W 122°46'0 0.0
2017-Oct-13 20:30N 45°35' W 122°46'0 0.1
2017-Oct-13 20:00N 45°35' W 122°46'2 4.6
2017-Oct-13 19:30N 45°37' W 122°47'4 8.2
2017-Oct-13 19:00N 45°41' W 122°46'6 9.0
2017-Oct-13 18:21N 45°47' W 122°47'3 9.0
2017-Oct-13 18:00N 45°50' W 122°47'7 9.1
2017-Oct-13 17:14N 45°57' W 122°49'2 9.2
2017-Oct-13 17:01N 45°59' W 122°51'5 9.5
2017-Oct-13 16:30N 46°03' W 122°53'3 5.3
2017-Oct-13 16:00N 46°05' W 122°56'0 0.0
2017-Oct-13 15:31N 46°05' W 122°56'0 0.0
2017-Oct-13 15:00N 46°05' W 122°56'0 0.0
2017-Oct-13 14:31N 46°05' W 122°56'0 0.0
2017-Oct-13 13:51N 46°05' W 122°56'0 0.0
2017-Oct-13 13:30N 46°05' W 122°56'3 5.2
2017-Oct-13 12:50N 46°08' W 122°59'0 0.0
2017-Oct-13 12:30N 46°08' W 122°59'0 0.1
2017-Oct-13 11:56N 46°08' W 122°60'1 2.8
2017-Oct-13 11:30N 46°08' W 123°01'0 0.3
2017-Oct-13 11:00N 46°08' W 123°01'3 5.4
2017-Oct-13 10:31N 46°07' W 122°58'2 4.0
2017-Oct-13 10:00N 46°05' W 122°56'0 0.0
2017-Oct-13 09:15N 46°05' W 122°56'0 0.0
2017-Oct-13 09:00N 46°05' W 122°56'0 0.0
2017-Oct-13 08:30N 46°05' W 122°56'0 0.0
2017-Oct-13 07:52N 46°05' W 122°56'0 0.0
2017-Oct-13 07:31N 46°05' W 122°56'0 0.0
2017-Oct-13 06:59N 46°05' W 122°56'0 0.0
2017-Oct-13 06:30N 46°05' W 122°56'0 0.0
2017-Oct-13 05:55N 46°05' W 122°56'0 0.0
2017-Oct-13 05:30N 46°05' W 122°56'0 0.0
2017-Oct-13 05:00N 46°05' W 122°56'0 0.0
2017-Oct-13 04:30N 46°05' W 122°56'0 0.0
2017-Oct-13 04:00N 46°05' W 122°56'0 0.0
2017-Oct-13 03:30N 46°05' W 122°56'0 0.0
2017-Oct-13 03:00N 46°05' W 122°56'0 0.0
2017-Oct-13 02:21N 46°05' W 122°56'0 0.0
2017-Oct-13 02:00N 46°05' W 122°56'0 0.0
2017-Oct-13 01:30N 46°05' W 122°56'0 0.0
2017-Oct-13 01:00N 46°05' W 122°56'0 0.0
2017-Oct-13 00:30N 46°05' W 122°56'0 0.0
2017-Oct-13 00:00N 46°05' W 122°56'0 0.0
2017-Oct-12 23:31N 46°05' W 122°56'0 0.0
2017-Oct-12 23:00N 46°05' W 122°56'0 0.0
2017-Oct-12 22:31N 46°05' W 122°56'0 0.0
2017-Oct-12 22:00N 46°05' W 122°56'0 0.0
2017-Oct-12 21:31N 46°05' W 122°56'0 0.0
2017-Oct-12 21:00N 46°05' W 122°56'0 0.0
2017-Oct-12 20:30N 46°05' W 122°56'0 0.0
2017-Oct-12 20:00N 46°05' W 122°56'0 0.0
2017-Oct-12 19:31N 46°05' W 122°56'0 0.0
2017-Oct-12 19:00N 46°05' W 122°56'0 0.0
2017-Oct-12 18:30N 46°05' W 122°56'0 0.0
2017-Oct-12 18:00N 46°05' W 122°56'0 0.0
2017-Oct-12 17:30N 46°05' W 122°56'0 0.0
2017-Oct-12 16:56N 46°05' W 122°56'0 0.0
2017-Oct-12 16:30N 46°05' W 122°56'0 0.0
2017-Oct-12 16:00N 46°05' W 122°56'0 0.0
2017-Oct-12 15:30N 46°05' W 122°56'0 0.0
2017-Oct-12 15:00N 46°05' W 122°56'0 0.0
2017-Oct-12 14:30N 46°05' W 122°56'0 0.0
2017-Oct-12 13:52N 46°05' W 122°56'0 0.0
2017-Oct-12 13:30N 46°05' W 122°56'0 0.0
2017-Oct-12 12:55N 46°05' W 122°56'0 0.0
2017-Oct-12 12:30N 46°05' W 122°56'0 0.0
2017-Oct-12 11:53N 46°05' W 122°56'0 0.0
2017-Oct-12 11:30N 46°05' W 122°56'0 0.0
2017-Oct-12 10:57N 46°05' W 122°56'0 0.0
2017-Oct-12 10:30N 46°05' W 122°56'0 0.0
2017-Oct-12 09:51N 46°05' W 122°56'0 0.0
2017-Oct-12 09:30N 46°05' W 122°56'0 0.0
2017-Oct-12 08:56N 46°05' W 122°56'0 0.0
2017-Oct-12 08:30N 46°05' W 122°56'0 0.0
2017-Oct-12 07:43N 46°05' W 122°56'0 0.0
2017-Oct-12 07:30N 46°05' W 122°56'0 0.0
2017-Oct-12 07:00N 46°05' W 122°56'0 0.0
2017-Oct-12 06:30N 46°05' W 122°56'0 0.0
2017-Oct-12 06:00N 46°05' W 122°56'0 0.0
2017-Oct-12 05:26N 46°05' W 122°56'0 0.0
2017-Oct-12 05:00N 46°05' W 122°56'0 0.0
2017-Oct-12 04:30N 46°05' W 122°56'0 0.0
2017-Oct-12 04:00N 46°05' W 122°56'0 0.0
2017-Oct-12 03:30N 46°05' W 122°56'0 0.0
2017-Oct-12 03:00N 46°05' W 122°56'0 0.0
2017-Oct-12 02:30N 46°05' W 122°56'0 0.0
2017-Oct-12 02:00N 46°05' W 122°56'0 0.0
2017-Oct-12 01:30N 46°05' W 122°56'0 0.0
2017-Oct-12 01:01N 46°05' W 122°56'0 0.0
2017-Oct-12 00:31N 46°05' W 122°56'0 0.0
2017-Oct-11 23:50N 46°05' W 122°56'0 0.0
2017-Oct-11 23:30N 46°05' W 122°56'0 0.0
2017-Oct-11 23:00N 46°05' W 122°56'0 0.0
2017-Oct-11 22:20N 46°05' W 122°56'0 0.0
2017-Oct-11 21:58N 46°05' W 122°56'0 0.0
2017-Oct-11 21:30N 46°05' W 122°56'0 0.0
2017-Oct-11 21:00N 46°05' W 122°56'0 0.0
2017-Oct-11 20:30N 46°05' W 122°56'0 0.0
2017-Oct-11 20:00N 46°05' W 122°56'0 0.0
2017-Oct-11 19:30N 46°05' W 122°56'0 0.0
2017-Oct-11 19:00N 46°05' W 122°56'0 0.0
2017-Oct-11 18:30N 46°05' W 122°56'0 0.0
2017-Oct-11 18:01N 46°05' W 122°56'0 0.0
2017-Oct-11 17:30N 46°05' W 122°56'0 0.0
2017-Oct-11 17:00N 46°05' W 122°56'5 0.3
2017-Oct-11 00:00N 46°02' W 122°52'0 0.3
2017-Oct-10 23:30N 46°02' W 122°52'0 0.0
2017-Oct-10 23:00N 46°02' W 122°52'0 0.1
2017-Oct-10 22:30N 46°02' W 122°52'0 0.0
2017-Oct-10 22:00N 46°02' W 122°52'0 0.0
2017-Oct-10 21:30N 46°02' W 122°52'0 0.3
2017-Oct-10 21:00N 46°02' W 122°52'4 8.5
2017-Oct-10 20:30N 46°05' W 122°55'0 0.4
2017-Oct-10 20:01N 46°05' W 122°56'0 0.0
2017-Oct-10 19:30N 46°05' W 122°56'0 0.0
2017-Oct-10 19:01N 46°05' W 122°56'0 0.0
2017-Oct-10 18:30N 46°05' W 122°56'0 0.0
2017-Oct-10 18:00N 46°05' W 122°56'0 0.0
2017-Oct-10 17:30N 46°05' W 122°56'0 0.0
2017-Oct-10 17:00N 46°05' W 122°56'0 0.0
2017-Oct-10 16:31N 46°05' W 122°56'0 0.0
2017-Oct-10 16:00N 46°05' W 122°56'0 0.0
2017-Oct-10 15:26N 46°05' W 122°56'0 0.0
2017-Oct-10 15:00N 46°05' W 122°56'0 0.0
2017-Oct-10 14:00N 46°05' W 122°56'0 0.0
2017-Oct-10 13:30N 46°05' W 122°56'0 0.0
2017-Oct-10 13:00N 46°05' W 122°56'0 0.0
2017-Oct-10 12:15N 46°05' W 122°56'0 0.0
2017-Oct-10 12:00N 46°05' W 122°56'0 0.0
2017-Oct-10 11:30N 46°05' W 122°56'0 0.0
2017-Oct-10 11:00N 46°05' W 122°56'0 0.0
2017-Oct-10 10:30N 46°05' W 122°56'0 0.0
2017-Oct-10 10:01N 46°05' W 122°56'0 0.0
2017-Oct-10 09:17N 46°05' W 122°56'0 0.0
2017-Oct-10 08:51N 46°05' W 122°56'0 0.0
2017-Oct-10 08:30N 46°05' W 122°56'0 0.0
2017-Oct-10 08:00N 46°05' W 122°56'0 0.0
2017-Oct-10 07:31N 46°05' W 122°56'0 0.0
2017-Oct-10 07:00N 46°05' W 122°56'0 0.0
2017-Oct-10 06:30N 46°05' W 122°56'0 0.0
2017-Oct-10 05:56N 46°05' W 122°56'0 0.0
2017-Oct-10 05:30N 46°05' W 122°56'0 0.0
2017-Oct-10 05:01N 46°05' W 122°56'0 0.0
2017-Oct-10 04:31N 46°05' W 122°56'0 0.0
2017-Oct-10 03:51N 46°05' W 122°56'0 0.0
2017-Oct-10 03:30N 46°05' W 122°56'0 0.0
2017-Oct-10 02:56N 46°05' W 122°56'0 0.0
2017-Oct-10 02:30N 46°05' W 122°56'0 0.0
2017-Oct-10 02:00N 46°05' W 122°56'0 0.0
2017-Oct-10 01:11N 46°05' W 122°56'0 0.0
2017-Oct-10 01:00N 46°05' W 122°56'0 0.0
2017-Oct-10 00:30N 46°05' W 122°56'0 0.0
2017-Oct-10 00:00N 46°05' W 122°56'0 0.0
2017-Oct-09 23:30N 46°05' W 122°56'0 0.0
2017-Oct-09 23:00N 46°05' W 122°56'0 0.0
2017-Oct-09 22:31N 46°05' W 122°56'0 0.0
2017-Oct-09 22:00N 46°05' W 122°56'0 0.0
2017-Oct-09 21:30N 46°05' W 122°56'0 0.0
2017-Oct-09 21:00N 46°05' W 122°56'0 0.0
2017-Oct-09 20:30N 46°05' W 122°56'0 0.0
2017-Oct-09 20:00N 46°05' W 122°56'0 0.0
2017-Oct-09 19:30N 46°05' W 122°56'2 4.5
2017-Oct-09 19:00N 46°04' W 122°53'2 5.0
2017-Oct-09 18:30N 46°01' W 122°52'0 0.3
2017-Oct-09 18:00N 46°02' W 122°52'0 0.4
2017-Oct-09 17:30N 46°02' W 122°52'2 4.4
2017-Oct-09 17:00N 46°04' W 122°53'2 4.8
2017-Oct-09 16:30N 46°05' W 122°56'0 0.0
2017-Oct-09 16:01N 46°05' W 122°56'0 0.0
2017-Oct-09 15:30N 46°05' W 122°56'0 0.0
2017-Oct-09 15:00N 46°05' W 122°56'0 0.0
2017-Oct-09 14:30N 46°05' W 122°56'0 0.0
2017-Oct-09 14:00N 46°05' W 122°56'0 0.0
2017-Oct-09 13:30N 46°05' W 122°56'0 0.0
2017-Oct-09 13:00N 46°05' W 122°56'0 0.0
2017-Oct-09 12:30N 46°05' W 122°56'0 0.0
2017-Oct-09 12:00N 46°05' W 122°56'0 0.0
2017-Oct-09 11:30N 46°05' W 122°56'0 0.0
2017-Oct-09 10:59N 46°05' W 122°56'0 0.0
2017-Oct-09 10:13N 46°05' W 122°56'0 0.0
2017-Oct-09 10:00N 46°05' W 122°56'0 0.0
2017-Oct-09 09:30N 46°05' W 122°56'0 0.0
2017-Oct-09 09:00N 46°05' W 122°56'0 0.0
2017-Oct-09 08:30N 46°05' W 122°56'0 0.0
2017-Oct-09 08:00N 46°05' W 122°56'0 0.0
2017-Oct-09 07:30N 46°05' W 122°56'0 0.0
2017-Oct-09 07:00N 46°05' W 122°56'0 0.0
2017-Oct-09 06:30N 46°05' W 122°56'0 0.0
2017-Oct-09 06:01N 46°05' W 122°56'0 0.0
2017-Oct-09 05:30N 46°05' W 122°56'0 0.0
2017-Oct-09 05:00N 46°05' W 122°56'0 0.0
2017-Oct-09 04:30N 46°05' W 122°56'0 0.0
2017-Oct-09 04:00N 46°05' W 122°56'4 9.0
2017-Oct-09 03:31N 46°02' W 122°52'0 0.4
2017-Oct-09 03:00N 46°01' W 122°52'0 0.3
2017-Oct-09 02:30N 46°02' W 122°52'0 0.1
2017-Oct-09 02:00N 46°02' W 122°52'0 0.0
2017-Oct-09 01:31N 46°02' W 122°52'5 6.6
2017-Oct-09 00:49N 46°05' W 122°56'0 0.0
2017-Oct-09 00:30N 46°05' W 122°56'0 0.0
2017-Oct-09 00:00N 46°05' W 122°56'0 0.0
2017-Oct-08 23:30N 46°05' W 122°56'0 0.0
2017-Oct-08 23:00N 46°05' W 122°56'0 0.0
2017-Oct-08 22:16N 46°05' W 122°56'0 0.0
2017-Oct-08 22:00N 46°05' W 122°56'0 0.0
2017-Oct-08 21:30N 46°05' W 122°56'0 0.0
2017-Oct-08 21:00N 46°05' W 122°56'0 0.0
2017-Oct-08 20:30N 46°05' W 122°56'0 0.0
2017-Oct-08 20:00N 46°05' W 122°56'0 0.0
2017-Oct-08 19:30N 46°05' W 122°56'0 0.0
2017-Oct-08 19:00N 46°05' W 122°56'0 0.0
2017-Oct-08 18:30N 46°05' W 122°56'0 0.0
2017-Oct-08 17:47N 46°05' W 122°56'0 0.0
2017-Oct-08 17:30N 46°05' W 122°56'0 0.0
2017-Oct-08 17:01N 46°05' W 122°56'0 0.0
2017-Oct-08 16:30N 46°05' W 122°56'0 0.0
2017-Oct-08 16:00N 46°05' W 122°56'0 0.0
2017-Oct-08 15:30N 46°05' W 122°56'0 0.0
2017-Oct-08 14:47N 46°05' W 122°56'0 0.0
2017-Oct-08 14:25N 46°05' W 122°56'0 0.0
2017-Oct-08 14:01N 46°05' W 122°56'0 0.0
2017-Oct-08 13:30N 46°05' W 122°56'0 0.0
2017-Oct-08 13:00N 46°05' W 122°56'0 0.0
2017-Oct-08 12:30N 46°05' W 122°56'0 0.0
2017-Oct-08 12:00N 46°05' W 122°56'0 0.0
2017-Oct-08 11:30N 46°05' W 122°56'0 0.0
2017-Oct-08 11:00N 46°05' W 122°56'0 0.0
2017-Oct-08 10:30N 46°05' W 122°56'0 0.0
2017-Oct-08 10:00N 46°05' W 122°56'0 0.0
2017-Oct-08 09:30N 46°05' W 122°56'0 0.0
2017-Oct-08 09:00N 46°05' W 122°56'0 0.0
2017-Oct-08 08:20N 46°05' W 122°56'0 0.0
2017-Oct-08 08:01N 46°05' W 122°56'0 0.0
2017-Oct-08 07:30N 46°05' W 122°56'0 0.0
2017-Oct-08 07:00N 46°05' W 122°56'0 0.0
2017-Oct-08 06:30N 46°05' W 122°56'0 0.0
2017-Oct-08 06:00N 46°05' W 122°56'0 0.0
2017-Oct-08 05:30N 46°05' W 122°56'0 0.0
2017-Oct-08 05:00N 46°05' W 122°56'0 0.0
2017-Oct-08 04:30N 46°05' W 122°56'0 0.0
2017-Oct-08 04:00N 46°05' W 122°56'0 0.0
2017-Oct-08 03:20N 46°05' W 122°56'0 0.0
2017-Oct-08 03:00N 46°05' W 122°56'0 0.0
2017-Oct-08 02:30N 46°05' W 122°56'0 0.0
2017-Oct-08 02:00N 46°05' W 122°56'0 0.0
2017-Oct-08 01:30N 46°05' W 122°56'0 0.0
2017-Oct-08 00:58N 46°05' W 122°56'0 0.0
2017-Oct-08 00:30N 46°05' W 122°56'0 0.0
2017-Oct-08 00:00N 46°05' W 122°56'0 0.0
2017-Oct-07 23:31N 46°05' W 122°56'0 0.0
2017-Oct-07 23:00N 46°05' W 122°56'0 0.0
2017-Oct-07 22:31N 46°05' W 122°56'  
Track history (hours):
 
Tides and Currents Weather Stations Pressure Air Temp Water Temp Dewpoint Dewpoint Depression Visibility Wind Speed Wind Dir Waves Ship Positions

Peter J Brix

Owner: Brusco Tug & Barge, Inc., Longview, WA. More information available from US FCC via Universal Licensing System and Coast Guard Vessel Documentation Center.

Last reported at 2017-Oct-17 22:01 UTC. Time now 2017-Oct-17 22:27 UTC.
Position N 45°35' W 122°46'.

Length 25 m; draft 4.6 m.

Type: Towing. MMSI: 367608420.

Date/timePositionNaut miles runAvg speedWind from/ knotsBaromVisibWave heightAir tempDewpointWater temp
2017-Oct-17 22:01N 45°35' W 122°46'0 0.0
2017-Oct-17 21:31N 45°35' W 122°46'0 0.0
2017-Oct-17 21:01N 45°35' W 122°46'0 0.0
2017-Oct-17 20:30N 45°35' W 122°46'0 0.0
2017-Oct-17 20:01N 45°35' W 122°46'0 0.0
2017-Oct-17 19:31N 45°35' W 122°46'0 0.0
2017-Oct-17 19:01N 45°35' W 122°46'0 0.0
2017-Oct-17 18:30N 45°35' W 122°46'0 0.0
2017-Oct-17 18:00N 45°35' W 122°46'0 0.0
2017-Oct-17 17:30N 45°35' W 122°46'0 0.0
2017-Oct-17 17:00N 45°35' W 122°46'0 0.0
2017-Oct-17 16:30N 45°35' W 122°46'0 0.0
2017-Oct-17 16:00N 45°35' W 122°46'0 0.0
2017-Oct-17 15:30N 45°35' W 122°46'0 0.0
2017-Oct-17 15:01N 45°35' W 122°46'0 0.0
2017-Oct-17 14:30N 45°35' W 122°46'0 0.0
2017-Oct-17 14:01N 45°35' W 122°46'0 0.0
2017-Oct-17 13:30N 45°35' W 122°46'0 0.0
2017-Oct-17 13:00N 45°35' W 122°46'0 0.0
2017-Oct-17 12:30N 45°35' W 122°46'0 0.0
2017-Oct-17 12:00N 45°35' W 122°46'0 0.0
2017-Oct-17 11:30N 45°35' W 122°46'0 0.0
2017-Oct-17 11:00N 45°35' W 122°46'0 0.0
2017-Oct-17 10:30N 45°35' W 122°46'0 0.0
2017-Oct-17 10:01N 45°35' W 122°46'0 0.0
2017-Oct-17 09:31N 45°35' W 122°46'0 0.0
2017-Oct-17 09:01N 45°35' W 122°46'0 0.0
2017-Oct-17 08:31N 45°35' W 122°46'0 0.0
2017-Oct-17 08:00N 45°35' W 122°46'0 0.0
2017-Oct-17 07:30N 45°35' W 122°46'0 0.0
2017-Oct-17 07:00N 45°35' W 122°46'0 0.0
2017-Oct-17 06:31N 45°35' W 122°46'0 0.0
2017-Oct-17 06:01N 45°35' W 122°46'0 0.0
2017-Oct-17 05:30N 45°35' W 122°46'0 0.0
2017-Oct-17 05:01N 45°35' W 122°46'0 0.0
2017-Oct-17 04:30N 45°35' W 122°46'0 0.0
2017-Oct-17 04:00N 45°35' W 122°46'0 0.0
2017-Oct-17 03:30N 45°35' W 122°46'0 0.1
2017-Oct-17 03:00N 45°35' W 122°46'2 4.9
2017-Oct-17 02:31N 45°38' W 122°47'4 8.8
2017-Oct-17 02:00N 45°37' W 122°41'0 0.3
2017-Oct-17 01:30N 45°38' W 122°41'0 0.2
2017-Oct-17 01:01N 45°38' W 122°41'1 1.3
2017-Oct-17 00:30N 45°38' W 122°42'3 6.0
2017-Oct-17 00:01N 45°39' W 122°46'4 7.2
2017-Oct-16 23:30N 45°35' W 122°46'0 0.0
2017-Oct-16 23:00N 45°35' W 122°46'0 0.0
2017-Oct-16 22:31N 45°35' W 122°46'0 0.0
2017-Oct-16 22:01N 45°35' W 122°46'0 0.0
2017-Oct-16 21:30N 45°35' W 122°46'0 0.0
2017-Oct-16 21:00N 45°35' W 122°46'0 0.0
2017-Oct-16 20:30N 45°35' W 122°46'0 0.0
2017-Oct-16 20:00N 45°35' W 122°46'0 0.0
2017-Oct-16 19:30N 45°35' W 122°46'0 0.0
2017-Oct-16 19:00N 45°35' W 122°46'0 0.0
2017-Oct-16 18:30N 45°35' W 122°46'0 0.0
2017-Oct-16 18:01N 45°35' W 122°46'0 0.0
2017-Oct-16 17:30N 45°35' W 122°46'0 0.0
2017-Oct-16 17:00N 45°35' W 122°46'0 0.0
2017-Oct-16 16:30N 45°35' W 122°46'0 0.0
2017-Oct-16 16:00N 45°35' W 122°46'0 0.0
2017-Oct-16 15:30N 45°35' W 122°46'0 0.0
2017-Oct-16 15:01N 45°35' W 122°46'0 0.0
2017-Oct-16 14:00N 45°35' W 122°46'0 0.0
2017-Oct-16 13:30N 45°35' W 122°46'0 0.0
2017-Oct-16 13:00N 45°35' W 122°46'0 0.0
2017-Oct-16 12:31N 45°35' W 122°46'0 0.0
2017-Oct-16 12:01N 45°35' W 122°46'0 0.0
2017-Oct-16 11:31N 45°35' W 122°46'0 0.0
2017-Oct-16 11:00N 45°35' W 122°46'0 0.0
2017-Oct-16 10:30N 45°35' W 122°46'0 0.0
2017-Oct-16 10:00N 45°35' W 122°46'0 0.0
2017-Oct-16 09:31N 45°35' W 122°46'0 0.0
2017-Oct-16 09:00N 45°35' W 122°46'0 0.0
2017-Oct-16 08:30N 45°35' W 122°46'0 0.0
2017-Oct-16 08:00N 45°35' W 122°46'2 3.1
2017-Oct-16 07:22N 45°37' W 122°47'1 4.0
2017-Oct-16 07:00N 45°38' W 122°47'2 4.2
2017-Oct-16 06:30N 45°36' W 122°47'1 2.3
2017-Oct-16 06:00N 45°35' W 122°46'0 0.0
2017-Oct-16 05:30N 45°35' W 122°46'0 0.0
2017-Oct-16 05:00N 45°35' W 122°46'0 0.0
2017-Oct-16 04:30N 45°35' W 122°46'0 0.0
2017-Oct-16 04:00N 45°35' W 122°46'0 0.0
2017-Oct-16 03:30N 45°35' W 122°46'0 0.0
2017-Oct-16 03:00N 45°35' W 122°46'0 0.0
2017-Oct-16 02:30N 45°35' W 122°46'0 0.0
2017-Oct-16 02:01N 45°35' W 122°46'0 0.0
2017-Oct-16 01:30N 45°35' W 122°46'0 0.0
2017-Oct-16 01:00N 45°35' W 122°46'0 0.0
2017-Oct-16 00:31N 45°35' W 122°46'0 0.0
2017-Oct-16 00:00N 45°35' W 122°46'0 0.0
2017-Oct-15 23:30N 45°35' W 122°46'0 0.0
2017-Oct-15 23:01N 45°35' W 122°46'0 0.0
2017-Oct-15 22:31N 45°35' W 122°46'0 0.0
2017-Oct-15 22:00N 45°35' W 122°46'0 0.0
2017-Oct-15 21:30N 45°35' W 122°46'0 0.0
2017-Oct-15 21:00N 45°35' W 122°46'0 0.0
2017-Oct-15 20:30N 45°35' W 122°46'0 0.0
2017-Oct-15 20:00N 45°35' W 122°46'0 0.0
2017-Oct-15 19:24N 45°35' W 122°46'0 0.0
2017-Oct-15 19:00N 45°35' W 122°46'0 0.0
2017-Oct-15 18:30N 45°35' W 122°46'0 0.0
2017-Oct-15 18:00N 45°35' W 122°46'0 0.0
2017-Oct-15 17:30N 45°35' W 122°46'0 0.0
2017-Oct-15 17:01N 45°35' W 122°46'0 0.0
2017-Oct-15 16:31N 45°35' W 122°46'0 0.0
2017-Oct-15 16:00N 45°35' W 122°46'0 0.0
2017-Oct-15 15:30N 45°35' W 122°46'0 0.0
2017-Oct-15 15:00N 45°35' W 122°46'0 0.0
2017-Oct-15 13:54N 45°35' W 122°46'0 0.0
2017-Oct-15 13:30N 45°35' W 122°46'0 0.0
2017-Oct-15 13:01N 45°35' W 122°46'0 0.0
2017-Oct-15 12:30N 45°35' W 122°46'0 0.0
2017-Oct-15 12:01N 45°35' W 122°46'0 0.0
2017-Oct-15 11:30N 45°35' W 122°46'0 0.0
2017-Oct-15 11:00N 45°35' W 122°46'0 0.0
2017-Oct-15 10:30N 45°35' W 122°46'0 0.0
2017-Oct-15 10:00N 45°35' W 122°46'0 0.0
2017-Oct-15 09:30N 45°35' W 122°46'0 0.0
2017-Oct-15 09:00N 45°35' W 122°46'0 0.0
2017-Oct-15 08:30N 45°35' W 122°46'0 0.0
2017-Oct-15 08:00N 45°35' W 122°46'0 0.0
2017-Oct-15 07:30N 45°35' W 122°46'0 0.0
2017-Oct-15 07:00N 45°35' W 122°46'0 0.0
2017-Oct-15 06:30N 45°35' W 122°46'0 0.0
2017-Oct-15 06:00N 45°35' W 122°46'0 0.0
2017-Oct-15 05:30N 45°35' W 122°46'0 0.0
2017-Oct-15 05:00N 45°35' W 122°46'0 0.0
2017-Oct-15 04:30N 45°35' W 122°46'0 0.0
2017-Oct-15 04:00N 45°35' W 122°46'0 0.0
2017-Oct-15 03:30N 45°35' W 122°46'0 0.0
2017-Oct-15 03:01N 45°35' W 122°46'0 0.0
2017-Oct-15 02:30N 45°35' W 122°46'0 0.0
2017-Oct-15 01:41N 45°35' W 122°46'0 0.0
2017-Oct-15 01:20N 45°35' W 122°46'0 0.0
2017-Oct-15 01:00N 45°35' W 122°46'0 0.0
2017-Oct-15 00:30N 45°35' W 122°46'0 0.0
2017-Oct-15 00:00N 45°35' W 122°46'0 0.0
2017-Oct-14 23:30N 45°35' W 122°46'0 0.0
2017-Oct-14 22:53N 45°35' W 122°46'0 0.0
2017-Oct-14 22:30N 45°35' W 122°46'0 0.0
2017-Oct-14 22:00N 45°35' W 122°46'0 0.0
2017-Oct-14 21:30N 45°35' W 122°46'0 0.0
2017-Oct-14 21:00N 45°35' W 122°46'0 0.0
2017-Oct-14 20:31N 45°35' W 122°46'0 0.8
2017-Oct-14 20:01N 45°36' W 122°46'3 6.6
2017-Oct-14 19:30N 45°39' W 122°44'2 3.7
2017-Oct-14 19:00N 45°38' W 122°42'3 6.0
2017-Oct-14 18:30N 45°39' W 122°46'4 7.9
2017-Oct-14 18:00N 45°35' W 122°46'0 0.0
2017-Oct-14 17:31N 45°35' W 122°46'0 0.0
2017-Oct-14 17:01N 45°35' W 122°46'0 0.0
2017-Oct-14 16:30N 45°35' W 122°46'0 0.0
2017-Oct-14 15:59N 45°35' W 122°46'0 0.0
2017-Oct-14 15:30N 45°35' W 122°46'0 0.0
2017-Oct-14 15:00N 45°35' W 122°46'0 0.0
2017-Oct-14 14:31N 45°35' W 122°46'0 0.0
2017-Oct-14 14:00N 45°35' W 122°46'0 0.0
2017-Oct-14 13:30N 45°35' W 122°46'0 0.0
2017-Oct-14 13:00N 45°35' W 122°46'0 0.0
2017-Oct-14 12:30N 45°35' W 122°46'0 0.0
2017-Oct-14 12:00N 45°35' W 122°46'0 0.0
2017-Oct-14 11:30N 45°35' W 122°46'0 0.0
2017-Oct-14 11:00N 45°35' W 122°46'0 0.0
2017-Oct-14 10:31N 45°35' W 122°46'0 0.0
2017-Oct-14 10:00N 45°35' W 122°46'0 0.0
2017-Oct-14 09:30N 45°35' W 122°46'0 0.0
2017-Oct-14 09:00N 45°35' W 122°46'0 0.0
2017-Oct-14 08:30N 45°35' W 122°46'0 0.0
2017-Oct-14 08:00N 45°35' W 122°46'0 0.0
2017-Oct-14 07:30N 45°35' W 122°46'0 0.0
2017-Oct-14 06:59N 45°35' W 122°46'0 0.0
2017-Oct-14 06:30N 45°35' W 122°46'0 0.0
2017-Oct-14 06:00N 45°35' W 122°46'0 0.0
2017-Oct-14 05:30N 45°35' W 122°46'0 0.0
2017-Oct-14 05:00N 45°35' W 122°46'0 0.0
2017-Oct-14 04:27N 45°35' W 122°46'0 0.0
2017-Oct-14 04:00N 45°35' W 122°46'0 0.0
2017-Oct-14 03:21N 45°35' W 122°46'0 0.0
2017-Oct-14 03:00N 45°35' W 122°46'0 0.0
2017-Oct-14 02:30N 45°35' W 122°46'3 6.7
2017-Oct-14 02:00N 45°39' W 122°46'0 0.1
2017-Oct-14 01:30N 45°39' W 122°46'1 1.6
2017-Oct-14 01:00N 45°39' W 122°46'0 0.8
2017-Oct-14 00:31N 45°39' W 122°45'2 3.2
2017-Oct-14 00:00N 45°38' W 122°47'3 5.9
2017-Oct-13 23:31N 45°35' W 122°46'0 0.0
2017-Oct-13 23:00N 45°35' W 122°46'0 0.0
2017-Oct-13 22:30N 45°35' W 122°46'0 0.0
2017-Oct-13 22:00N 45°35' W 122°46'0 0.0
2017-Oct-13 21:15N 45°35' W 122°46'0 0.0
2017-Oct-13 21:00N 45°35' W 122°46'0 0.0
2017-Oct-13 20:30N 45°35' W 122°46'0 0.1
2017-Oct-13 20:00N 45°35' W 122°46'2 4.6
2017-Oct-13 19:30N 45°37' W 122°47'4 8.2
2017-Oct-13 19:00N 45°41' W 122°46'6 9.0
2017-Oct-13 18:21N 45°47' W 122°47'3 9.0
2017-Oct-13 18:00N 45°50' W 122°47'7 9.1
2017-Oct-13 17:14N 45°57' W 122°49'2 9.2
2017-Oct-13 17:01N 45°59' W 122°51'5 9.5
2017-Oct-13 16:30N 46°03' W 122°53'3 5.3
2017-Oct-13 16:00N 46°05' W 122°56'0 0.0
2017-Oct-13 15:31N 46°05' W 122°56'0 0.0
2017-Oct-13 15:00N 46°05' W 122°56'0 0.0
2017-Oct-13 14:31N 46°05' W 122°56'0 0.0
2017-Oct-13 13:51N 46°05' W 122°56'0 0.0
2017-Oct-13 13:30N 46°05' W 122°56'3 5.2
2017-Oct-13 12:50N 46°08' W 122°59'0 0.0
2017-Oct-13 12:30N 46°08' W 122°59'0 0.1
2017-Oct-13 11:56N 46°08' W 122°60'1 2.8
2017-Oct-13 11:30N 46°08' W 123°01'0 0.3
2017-Oct-13 11:00N 46°08' W 123°01'3 5.4
2017-Oct-13 10:31N 46°07' W 122°58'2 4.0
2017-Oct-13 10:00N 46°05' W 122°56'0 0.0
2017-Oct-13 09:15N 46°05' W 122°56'0 0.0
2017-Oct-13 09:00N 46°05' W 122°56'0 0.0
2017-Oct-13 08:30N 46°05' W 122°56'0 0.0
2017-Oct-13 07:52N 46°05' W 122°56'0 0.0
2017-Oct-13 07:31N 46°05' W 122°56'0 0.0
2017-Oct-13 06:59N 46°05' W 122°56'0 0.0
2017-Oct-13 06:30N 46°05' W 122°56'0 0.0
2017-Oct-13 05:55N 46°05' W 122°56'0 0.0
2017-Oct-13 05:30N 46°05' W 122°56'0 0.0
2017-Oct-13 05:00N 46°05' W 122°56'0 0.0
2017-Oct-13 04:30N 46°05' W 122°56'0 0.0
2017-Oct-13 04:00N 46°05' W 122°56'0 0.0
2017-Oct-13 03:30N 46°05' W 122°56'0 0.0
2017-Oct-13 03:00N 46°05' W 122°56'0 0.0
2017-Oct-13 02:21N 46°05' W 122°56'0 0.0
2017-Oct-13 02:00N 46°05' W 122°56'0 0.0
2017-Oct-13 01:30N 46°05' W 122°56'0 0.0
2017-Oct-13 01:00N 46°05' W 122°56'0 0.0
2017-Oct-13 00:30N 46°05' W 122°56'0 0.0
2017-Oct-13 00:00N 46°05' W 122°56'0 0.0
2017-Oct-12 23:31N 46°05' W 122°56'0 0.0
2017-Oct-12 23:00N 46°05' W 122°56'0 0.0
2017-Oct-12 22:31N 46°05' W 122°56'0 0.0
2017-Oct-12 22:00N 46°05' W 122°56'0 0.0
2017-Oct-12 21:31N 46°05' W 122°56'0 0.0
2017-Oct-12 21:00N 46°05' W 122°56'0 0.0
2017-Oct-12 20:30N 46°05' W 122°56'0 0.0
2017-Oct-12 20:00N 46°05' W 122°56'0 0.0
2017-Oct-12 19:31N 46°05' W 122°56'0 0.0
2017-Oct-12 19:00N 46°05' W 122°56'0 0.0
2017-Oct-12 18:30N 46°05' W 122°56'0 0.0
2017-Oct-12 18:00N 46°05' W 122°56'0 0.0
2017-Oct-12 17:30N 46°05' W 122°56'0 0.0
2017-Oct-12 16:56N 46°05' W 122°56'0 0.0
2017-Oct-12 16:30N 46°05' W 122°56'0 0.0
2017-Oct-12 16:00N 46°05' W 122°56'0 0.0
2017-Oct-12 15:30N 46°05' W 122°56'0 0.0
2017-Oct-12 15:00N 46°05' W 122°56'0 0.0
2017-Oct-12 14:30N 46°05' W 122°56'0 0.0
2017-Oct-12 13:52N 46°05' W 122°56'0 0.0
2017-Oct-12 13:30N 46°05' W 122°56'0 0.0
2017-Oct-12 12:55N 46°05' W 122°56'0 0.0
2017-Oct-12 12:30N 46°05' W 122°56'0 0.0
2017-Oct-12 11:53N 46°05' W 122°56'0 0.0
2017-Oct-12 11:30N 46°05' W 122°56'0 0.0
2017-Oct-12 10:57N 46°05' W 122°56'0 0.0
2017-Oct-12 10:30N 46°05' W 122°56'0 0.0
2017-Oct-12 09:51N 46°05' W 122°56'0 0.0
2017-Oct-12 09:30N 46°05' W 122°56'0 0.0
2017-Oct-12 08:56N 46°05' W 122°56'0 0.0
2017-Oct-12 08:30N 46°05' W 122°56'0 0.0
2017-Oct-12 07:43N 46°05' W 122°56'0 0.0
2017-Oct-12 07:30N 46°05' W 122°56'0 0.0
2017-Oct-12 07:00N 46°05' W 122°56'0 0.0
2017-Oct-12 06:30N 46°05' W 122°56'0 0.0
2017-Oct-12 06:00N 46°05' W 122°56'0 0.0
2017-Oct-12 05:26N 46°05' W 122°56'0 0.0
2017-Oct-12 05:00N 46°05' W 122°56'0 0.0
2017-Oct-12 04:30N 46°05' W 122°56'0 0.0
2017-Oct-12 04:00N 46°05' W 122°56'0 0.0
2017-Oct-12 03:30N 46°05' W 122°56'0 0.0
2017-Oct-12 03:00N 46°05' W 122°56'0 0.0
2017-Oct-12 02:30N 46°05' W 122°56'0 0.0
2017-Oct-12 02:00N 46°05' W 122°56'0 0.0
2017-Oct-12 01:30N 46°05' W 122°56'0 0.0
2017-Oct-12 01:01N 46°05' W 122°56'0 0.0
2017-Oct-12 00:31N 46°05' W 122°56'0 0.0
2017-Oct-11 23:50N 46°05' W 122°56'0 0.0
2017-Oct-11 23:30N 46°05' W 122°56'0 0.0
2017-Oct-11 23:00N 46°05' W 122°56'0 0.0
2017-Oct-11 22:20N 46°05' W 122°56'0 0.0
2017-Oct-11 21:58N 46°05' W 122°56'0 0.0
2017-Oct-11 21:30N 46°05' W 122°56'0 0.0
2017-Oct-11 21:00N 46°05' W 122°56'0 0.0
2017-Oct-11 20:30N 46°05' W 122°56'0 0.0
2017-Oct-11 20:00N 46°05' W 122°56'0 0.0
2017-Oct-11 19:30N 46°05' W 122°56'0 0.0
2017-Oct-11 19:00N 46°05' W 122°56'0 0.0
2017-Oct-11 18:30N 46°05' W 122°56'0 0.0
2017-Oct-11 18:01N 46°05' W 122°56'0 0.0
2017-Oct-11 17:30N 46°05' W 122°56'0 0.0
2017-Oct-11 17:00N 46°05' W 122°56'5 0.3
2017-Oct-11 00:00N 46°02' W 122°52'0 0.3
2017-Oct-10 23:30N 46°02' W 122°52'0 0.0
2017-Oct-10 23:00N 46°02' W 122°52'0 0.1
2017-Oct-10 22:30N 46°02' W 122°52'0 0.0
2017-Oct-10 22:00N 46°02' W 122°52'0 0.0
2017-Oct-10 21:30N 46°02' W 122°52'0 0.3
2017-Oct-10 21:00N 46°02' W 122°52'4 8.5
2017-Oct-10 20:30N 46°05' W 122°55'0 0.4
2017-Oct-10 20:01N 46°05' W 122°56'0 0.0
2017-Oct-10 19:30N 46°05' W 122°56'0 0.0
2017-Oct-10 19:01N 46°05' W 122°56'0 0.0
2017-Oct-10 18:30N 46°05' W 122°56'0 0.0
2017-Oct-10 18:00N 46°05' W 122°56'0 0.0
2017-Oct-10 17:30N 46°05' W 122°56'0 0.0
2017-Oct-10 17:00N 46°05' W 122°56'0 0.0
2017-Oct-10 16:31N 46°05' W 122°56'0 0.0
2017-Oct-10 16:00N 46°05' W 122°56'0 0.0
2017-Oct-10 15:26N 46°05' W 122°56'0 0.0
2017-Oct-10 15:00N 46°05' W 122°56'0 0.0
2017-Oct-10 14:00N 46°05' W 122°56'0 0.0
2017-Oct-10 13:30N 46°05' W 122°56'0 0.0
2017-Oct-10 13:00N 46°05' W 122°56'0 0.0
2017-Oct-10 12:15N 46°05' W 122°56'0 0.0
2017-Oct-10 12:00N 46°05' W 122°56'0 0.0
2017-Oct-10 11:30N 46°05' W 122°56'0 0.0
2017-Oct-10 11:00N 46°05' W 122°56'0 0.0
2017-Oct-10 10:30N 46°05' W 122°56'0 0.0
2017-Oct-10 10:01N 46°05' W 122°56'0 0.0
2017-Oct-10 09:17N 46°05' W 122°56'0 0.0
2017-Oct-10 08:51N 46°05' W 122°56'0 0.0
2017-Oct-10 08:30N 46°05' W 122°56'0 0.0
2017-Oct-10 08:00N 46°05' W 122°56'0 0.0
2017-Oct-10 07:31N 46°05' W 122°56'0 0.0
2017-Oct-10 07:00N 46°05' W 122°56'0 0.0
2017-Oct-10 06:30N 46°05' W 122°56'0 0.0
2017-Oct-10 05:56N 46°05' W 122°56'0 0.0
2017-Oct-10 05:30N 46°05' W 122°56'0 0.0
2017-Oct-10 05:01N 46°05' W 122°56'0 0.0
2017-Oct-10 04:31N 46°05' W 122°56'0 0.0
2017-Oct-10 03:51N 46°05' W 122°56'0 0.0
2017-Oct-10 03:30N 46°05' W 122°56'0 0.0
2017-Oct-10 02:56N 46°05' W 122°56'0 0.0
2017-Oct-10 02:30N 46°05' W 122°56'0 0.0
2017-Oct-10 02:00N 46°05' W 122°56'0 0.0
2017-Oct-10 01:11N 46°05' W 122°56'0 0.0
2017-Oct-10 01:00N 46°05' W 122°56'0 0.0
2017-Oct-10 00:30N 46°05' W 122°56'0 0.0
2017-Oct-10 00:00N 46°05' W 122°56'0 0.0
2017-Oct-09 23:30N 46°05' W 122°56'0 0.0
2017-Oct-09 23:00N 46°05' W 122°56'0 0.0
2017-Oct-09 22:31N 46°05' W 122°56'0 0.0
2017-Oct-09 22:00N 46°05' W 122°56'0 0.0
2017-Oct-09 21:30N 46°05' W 122°56'0 0.0
2017-Oct-09 21:00N 46°05' W 122°56'0 0.0
2017-Oct-09 20:30N 46°05' W 122°56'0 0.0
2017-Oct-09 20:00N 46°05' W 122°56'0 0.0
2017-Oct-09 19:30N 46°05' W 122°56'2 4.5
2017-Oct-09 19:00N 46°04' W 122°53'2 5.0
2017-Oct-09 18:30N 46°01' W 122°52'0 0.3
2017-Oct-09 18:00N 46°02' W 122°52'0 0.4
2017-Oct-09 17:30N 46°02' W 122°52'2 4.4
2017-Oct-09 17:00N 46°04' W 122°53'2 4.8
2017-Oct-09 16:30N 46°05' W 122°56'0 0.0
2017-Oct-09 16:01N 46°05' W 122°56'0 0.0
2017-Oct-09 15:30N 46°05' W 122°56'0 0.0
2017-Oct-09 15:00N 46°05' W 122°56'0 0.0
2017-Oct-09 14:30N 46°05' W 122°56'0 0.0
2017-Oct-09 14:00N 46°05' W 122°56'0 0.0
2017-Oct-09 13:30N 46°05' W 122°56'0 0.0
2017-Oct-09 13:00N 46°05' W 122°56'0 0.0
2017-Oct-09 12:30N 46°05' W 122°56'0 0.0
2017-Oct-09 12:00N 46°05' W 122°56'0 0.0
2017-Oct-09 11:30N 46°05' W 122°56'0 0.0
2017-Oct-09 10:59N 46°05' W 122°56'0 0.0
2017-Oct-09 10:13N 46°05' W 122°56'0 0.0
2017-Oct-09 10:00N 46°05' W 122°56'0 0.0
2017-Oct-09 09:30N 46°05' W 122°56'0 0.0
2017-Oct-09 09:00N 46°05' W 122°56'0 0.0
2017-Oct-09 08:30N 46°05' W 122°56'0 0.0
2017-Oct-09 08:00N 46°05' W 122°56'0 0.0
2017-Oct-09 07:30N 46°05' W 122°56'0 0.0
2017-Oct-09 07:00N 46°05' W 122°56'0 0.0
2017-Oct-09 06:30N 46°05' W 122°56'0 0.0
2017-Oct-09 06:01N 46°05' W 122°56'0 0.0
2017-Oct-09 05:30N 46°05' W 122°56'0 0.0
2017-Oct-09 05:00N 46°05' W 122°56'0 0.0
2017-Oct-09 04:30N 46°05' W 122°56'0 0.0
2017-Oct-09 04:00N 46°05' W 122°56'4 9.0
2017-Oct-09 03:31N 46°02' W 122°52'0 0.4
2017-Oct-09 03:00N 46°01' W 122°52'0 0.3
2017-Oct-09 02:30N 46°02' W 122°52'0 0.1
2017-Oct-09 02:00N 46°02' W 122°52'0 0.0
2017-Oct-09 01:31N 46°02' W 122°52'5 6.6
2017-Oct-09 00:49N 46°05' W 122°56'0 0.0
2017-Oct-09 00:30N 46°05' W 122°56'0 0.0
2017-Oct-09 00:00N 46°05' W 122°56'0 0.0
2017-Oct-08 23:30N 46°05' W 122°56'0 0.0
2017-Oct-08 23:00N 46°05' W 122°56'0 0.0
2017-Oct-08 22:16N 46°05' W 122°56'0 0.0
2017-Oct-08 22:00N 46°05' W 122°56'0 0.0
2017-Oct-08 21:30N 46°05' W 122°56'0 0.0
2017-Oct-08 21:00N 46°05' W 122°56'0 0.0
2017-Oct-08 20:30N 46°05' W 122°56'0 0.0
2017-Oct-08 20:00N 46°05' W 122°56'0 0.0
2017-Oct-08 19:30N 46°05' W 122°56'0 0.0
2017-Oct-08 19:00N 46°05' W 122°56'0 0.0
2017-Oct-08 18:30N 46°05' W 122°56'0 0.0
2017-Oct-08 17:47N 46°05' W 122°56'0 0.0
2017-Oct-08 17:30N 46°05' W 122°56'0 0.0
2017-Oct-08 17:01N 46°05' W 122°56'0 0.0
2017-Oct-08 16:30N 46°05' W 122°56'0 0.0
2017-Oct-08 16:00N 46°05' W 122°56'0 0.0
2017-Oct-08 15:30N 46°05' W 122°56'0 0.0
2017-Oct-08 14:47N 46°05' W 122°56'0 0.0
2017-Oct-08 14:25N 46°05' W 122°56'0 0.0
2017-Oct-08 14:01N 46°05' W 122°56'0 0.0
2017-Oct-08 13:30N 46°05' W 122°56'0 0.0
2017-Oct-08 13:00N 46°05' W 122°56'0 0.0
2017-Oct-08 12:30N 46°05' W 122°56'0 0.0
2017-Oct-08 12:00N 46°05' W 122°56'0 0.0
2017-Oct-08 11:30N 46°05' W 122°56'0 0.0
2017-Oct-08 11:00N 46°05' W 122°56'0 0.0
2017-Oct-08 10:30N 46°05' W 122°56'0 0.0
2017-Oct-08 10:00N 46°05' W 122°56'0 0.0
2017-Oct-08 09:30N 46°05' W 122°56'0 0.0
2017-Oct-08 09:00N 46°05' W 122°56'0 0.0
2017-Oct-08 08:20N 46°05' W 122°56'0 0.0
2017-Oct-08 08:01N 46°05' W 122°56'0 0.0
2017-Oct-08 07:30N 46°05' W 122°56'0 0.0
2017-Oct-08 07:00N 46°05' W 122°56'0 0.0
2017-Oct-08 06:30N 46°05' W 122°56'0 0.0
2017-Oct-08 06:00N 46°05' W 122°56'0 0.0
2017-Oct-08 05:30N 46°05' W 122°56'0 0.0
2017-Oct-08 05:00N 46°05' W 122°56'0 0.0
2017-Oct-08 04:30N 46°05' W 122°56'0 0.0
2017-Oct-08 04:00N 46°05' W 122°56'0 0.0
2017-Oct-08 03:20N 46°05' W 122°56'0 0.0
2017-Oct-08 03:00N 46°05' W 122°56'0 0.0
2017-Oct-08 02:30N 46°05' W 122°56'0 0.0
2017-Oct-08 02:00N 46°05' W 122°56'0 0.0
2017-Oct-08 01:30N 46°05' W 122°56'0 0.0
2017-Oct-08 00:58N 46°05' W 122°56'0 0.0
2017-Oct-08 00:30N 46°05' W 122°56'0 0.0
2017-Oct-08 00:00N 46°05' W 122°56'0 0.0
2017-Oct-07 23:31N 46°05' W 122°56'0 0.0
2017-Oct-07 23:00N 46°05' W 122°56'0 0.0
2017-Oct-07 22:31N 46°05' W 122°56'  

Dump ship's entire track history